createdAt,value
2019-02-04T00:00:30.389Z,19.50
2019-02-04T00:13:53.268Z,19.50
2019-02-04T00:27:16.018Z,19.50
2019-02-04T00:40:38.786Z,19.50
2019-02-04T00:54:01.690Z,19.50
2019-02-04T01:07:24.377Z,19.50
2019-02-04T01:20:47.262Z,19.50
2019-02-04T01:34:10.023Z,19.50
2019-02-04T02:00:34.725Z,19.50
2019-02-04T02:13:41.953Z,19.50
2019-02-04T02:26:49.063Z,19.50
2019-02-04T02:39:56.389Z,19.50
2019-02-04T03:06:06.982Z,19.50
2019-02-04T03:19:14.232Z,19.50
2019-02-04T03:32:21.553Z,19.50
2019-02-04T03:45:28.749Z,19.50
2019-02-04T03:58:35.918Z,19.50
2019-02-04T04:12:00.016Z,19.60
2019-02-04T04:25:22.890Z,19.60
2019-02-04T04:51:47.295Z,19.60
2019-02-04T05:04:54.610Z,19.60
2019-02-04T05:18:01.797Z,19.60
2019-02-04T05:31:09.201Z,19.60
2019-02-04T05:44:16.604Z,19.60
2019-02-04T05:57:40.635Z,19.60
2019-02-04T06:11:03.571Z,19.60
2019-02-04T06:24:26.237Z,19.60
2019-02-04T06:37:49.091Z,19.60
2019-02-04T06:51:11.902Z,19.50
2019-02-04T07:17:36.327Z,19.50
2019-02-04T07:30:43.489Z,19.60
2019-02-04T07:43:50.611Z,19.60
2019-02-04T07:56:57.736Z,19.60
2019-02-04T08:10:04.881Z,19.60
2019-02-04T08:36:15.020Z,18.90
2019-02-04T08:49:22.206Z,18.40
2019-02-04T09:02:29.402Z,18.20
2019-02-04T09:15:36.570Z,18.60
2019-02-04T09:41:47.116Z,18.80
2019-02-04T09:54:54.228Z,18.90
2019-02-04T10:08:01.367Z,19.00
2019-02-04T10:21:08.537Z,19.00
2019-02-04T10:34:15.743Z,19.10
2019-02-04T10:47:22.852Z,19.10
2019-02-04T11:00:46.875Z,19.20
2019-02-04T11:14:09.687Z,19.00
2019-02-04T11:27:32.599Z,19.10
2019-02-04T11:53:57.024Z,19.20
2019-02-04T12:07:04.215Z,19.70
2019-02-04T12:20:11.651Z,19.90
2019-02-04T12:33:18.818Z,20.20
2019-02-04T12:46:26.129Z,20.30
2019-02-04T12:59:50.269Z,20.30
2019-02-04T13:13:13.219Z,20.30
2019-02-04T13:26:36.038Z,20.10
2019-02-04T13:39:58.861Z,20.10
2019-02-04T13:53:21.664Z,20.00
2019-02-04T14:06:44.327Z,20.00
2019-02-04T14:20:07.153Z,19.90
2019-02-04T14:33:29.979Z,20.10
2019-02-04T14:46:52.770Z,20.00
2019-02-04T15:00:15.674Z,20.00
2019-02-04T15:13:38.615Z,20.00
2019-02-04T15:40:02.933Z,20.00
2019-02-04T15:53:10.189Z,20.00
2019-02-04T16:06:17.506Z,20.00
2019-02-04T16:19:24.845Z,20.00
2019-02-04T16:32:32.060Z,20.00
2019-02-04T16:58:57.951Z,20.10
2019-02-04T17:12:05.116Z,20.20
2019-02-04T17:25:12.454Z,20.20
2019-02-04T17:38:19.607Z,20.20
2019-02-04T17:51:26.824Z,20.20
2019-02-04T18:04:34.116Z,20.10
2019-02-04T18:17:57.632Z,20.10
2019-02-04T18:44:22.511Z,20.10
2019-02-04T18:57:29.845Z,20.20
2019-02-04T19:10:37.210Z,18.80
2019-02-04T19:23:44.540Z,18.80
2019-02-04T19:36:51.849Z,19.20
2019-02-04T19:50:15.550Z,19.30
2019-02-04T20:03:38.456Z,19.30
2019-02-04T20:17:01.048Z,19.30
2019-02-04T20:30:23.893Z,19.30
2019-02-04T20:43:46.904Z,19.30
2019-02-04T20:57:09.537Z,19.30
2019-02-04T21:10:32.448Z,19.30
2019-02-04T21:23:55.293Z,19.30
2019-02-04T21:37:17.951Z,19.20
2019-02-04T21:50:40.760Z,19.30
2019-02-04T22:04:03.701Z,19.40
2019-02-04T22:17:26.468Z,19.40
2019-02-04T22:43:51.079Z,19.60
2019-02-04T22:56:58.419Z,19.60
2019-02-04T23:10:05.775Z,19.70
2019-02-04T23:23:13.050Z,19.70
2019-02-04T23:36:20.258Z,19.50
2019-02-04T23:49:44.187Z,19.50
